Gillette Campbell County Airport Gillette US
ICAO: KGCC
IATA: GCC
Category: Medium
Scheduled Services: Yes

Elevation: 4365 ft
TransAlt. 18000 ft.

Airport Communications:
ASOS:124.175
DENVER CNTR:135.6
CTAF:118.5
GND:121.7
CASPER RDO:122.3
TWR:118.5
UNICOM:122.95

KGCC Zoom In..

If you have problems with the map follow the link
https://www.worldairports.se/pages/airport.php?
ICAO=KGCC

Runways:

(A) RW 03 length 5803 ft width 75 ft
---- / hdg 26

(B) RW 16 length 7501 ft width 150 ft
---- / hdg 158

(C) RW 21 length 5803 ft width 75 ft
---- / hdg 206

(D) RW 34 length 7501 ft width 150 ft
ILS 110.10 / hdg 338

Location; KGCC
Day. 22 / Time. 17.08 Zulu
* Altimeter: 29.90
* Temperature: -09° c. -15.8°f.
* Wind from: 170° Speed 11 kn.
Dewpoint: -12° c.
Visibility: 2 m.
Clouds: Broken 2200 ft.
Clouds: Broken 3000 ft.
Clouds: Overcast 3800 ft.
Conditions: Light Snow.

KGCC 221708Z AUTO 17011KT 2 1/2SM -SN BKN022 BKN030 OVC038 M09/M12 A2990 RMK AO2 P0000 T10941122


Wind From 170°
Speed 11 kn.

 
 
jpsmedia.com for Web Design worldairports.se 2019   terms of use